createdAt,value
2022-08-11T00:02:28.489Z,20.16
2022-08-11T00:04:58.635Z,20.20
2022-08-11T00:07:28.104Z,20.07
2022-08-11T00:09:57.162Z,20.04
2022-08-11T00:12:25.391Z,20.02
2022-08-11T00:14:59.849Z,20.12
2022-08-11T00:17:31.717Z,20.05
2022-08-11T00:20:12.052Z,20.02
2022-08-11T00:22:47.365Z,19.91
2022-08-11T00:25:18.180Z,19.93
2022-08-11T00:27:47.547Z,19.86
2022-08-11T00:30:16.640Z,19.83
2022-08-11T00:32:54.720Z,19.89
2022-08-11T00:35:50.786Z,19.76
2022-08-11T00:38:16.220Z,19.69
2022-08-11T00:40:53.961Z,19.63
2022-08-11T00:43:33.796Z,19.53
2022-08-11T00:46:26.456Z,19.71
2022-08-11T00:49:06.998Z,19.49
2022-08-11T00:51:56.736Z,19.54
2022-08-11T00:54:58.693Z,19.47
2022-08-11T00:57:51.621Z,19.51
2022-08-11T01:00:23.192Z,19.35
2022-08-11T01:03:19.384Z,19.42
2022-08-11T01:06:18.605Z,19.59
2022-08-11T01:09:21.989Z,19.54
2022-08-11T01:12:08.115Z,19.36
2022-08-11T01:15:03.016Z,19.11
2022-08-11T01:18:28.596Z,19.07
2022-08-11T01:21:49.596Z,18.98
2022-08-11T01:25:02.061Z,19.04
2022-08-11T01:28:00.828Z,18.95
2022-08-11T01:30:49.354Z,18.99
2022-08-11T01:34:02.028Z,18.98
2022-08-11T01:37:00.141Z,18.89
2022-08-11T01:40:01.593Z,18.85
2022-08-11T01:43:20.139Z,18.75
2022-08-11T01:45:54.028Z,18.80
2022-08-11T01:48:37.957Z,18.85
2022-08-11T01:51:30.198Z,18.74
2022-08-11T01:54:06.201Z,18.67
2022-08-11T01:56:45.685Z,18.51
2022-08-11T01:59:19.442Z,18.52
2022-08-11T02:02:02.990Z,18.53
2022-08-11T02:04:34.874Z,18.48
2022-08-11T02:07:11.837Z,18.52
2022-08-11T02:09:59.971Z,18.47
2022-08-11T02:12:49.931Z,18.50
2022-08-11T02:15:27.746Z,18.36
2022-08-11T02:18:06.141Z,18.27
2022-08-11T02:21:00.557Z,18.27
2022-08-11T02:24:06.766Z,18.13
2022-08-11T02:26:40.658Z,18.26
2022-08-11T02:29:17.577Z,18.16
2022-08-11T02:32:29.700Z,18.12
2022-08-11T02:35:04.975Z,18.10
2022-08-11T02:37:45.043Z,18.06
2022-08-11T02:40:23.686Z,18.04
2022-08-11T02:43:05.547Z,18.04
2022-08-11T02:45:41.084Z,18.05
2022-08-11T02:48:40.561Z,18.04
2022-08-11T02:51:22.212Z,17.96
2022-08-11T02:54:01.964Z,17.93
2022-08-11T02:56:44.377Z,17.88
2022-08-11T02:59:43.699Z,17.77
2022-08-11T03:02:18.606Z,17.75
2022-08-11T03:04:59.882Z,17.82
2022-08-11T03:07:34.974Z,17.79
2022-08-11T03:10:10.912Z,17.74
2022-08-11T03:13:05.419Z,17.58
2022-08-11T03:16:15.745Z,17.52
2022-08-11T03:18:51.699Z,17.58
2022-08-11T03:21:25.242Z,17.54
2022-08-11T03:24:22.905Z,17.56
2022-08-11T03:27:04.530Z,17.52
2022-08-11T03:29:36.688Z,17.50
2022-08-11T03:32:12.496Z,17.52
2022-08-11T03:34:41.512Z,17.73
2022-08-11T03:37:52.839Z,17.77
2022-08-11T03:40:59.227Z,17.67
2022-08-11T03:43:58.434Z,17.62
2022-08-11T03:46:38.218Z,17.61
2022-08-11T03:49:20.704Z,17.77
2022-08-11T03:51:55.044Z,17.75
2022-08-11T03:54:34.125Z,17.70
2022-08-11T03:57:43.389Z,17.55
2022-08-11T04:00:46.563Z,17.69
2022-08-11T04:03:31.224Z,17.59
2022-08-11T04:06:47.467Z,17.66
2022-08-11T04:09:54.548Z,17.47
2022-08-11T04:12:55.448Z,17.53
2022-08-11T04:16:11.704Z,17.47
2022-08-11T04:19:20.471Z,17.56
2022-08-11T04:22:23.979Z,17.64
2022-08-11T04:25:12.101Z,17.56
2022-08-11T04:28:28.656Z,17.44
2022-08-11T04:31:50.342Z,17.48
2022-08-11T04:35:02.198Z,17.57
2022-08-11T04:38:00.526Z,17.53
2022-08-11T04:40:51.670Z,17.34
2022-08-11T04:44:04.587Z,17.39
2022-08-11T04:46:57.196Z,17.71
2022-08-11T04:49:58.421Z,17.52
2022-08-11T04:53:08.135Z,17.64
2022-08-11T04:56:20.789Z,17.54
2022-08-11T04:59:38.764Z,17.48
2022-08-11T05:02:36.667Z,17.56
2022-08-11T05:05:31.865Z,17.49
2022-08-11T05:08:42.660Z,17.54
2022-08-11T05:11:34.107Z,17.55
2022-08-11T05:14:46.094Z,17.64
2022-08-11T05:17:34.934Z,17.82
2022-08-11T05:20:20.677Z,17.94
2022-08-11T05:23:08.515Z,17.93
2022-08-11T05:26:43.686Z,18.03
2022-08-11T05:29:19.492Z,17.96
2022-08-11T05:32:14.363Z,18.08
2022-08-11T05:34:52.298Z,17.96
2022-08-11T05:37:27.108Z,18.16
2022-08-11T05:40:18.566Z,18.13
2022-08-11T05:43:14.315Z,18.33
2022-08-11T05:46:04.773Z,18.46
2022-08-11T05:48:55.474Z,18.41
2022-08-11T05:51:55.111Z,18.58
2022-08-11T05:54:42.794Z,18.44
2022-08-11T05:57:48.979Z,18.63
2022-08-11T06:00:12.639Z,18.72
2022-08-11T06:02:44.793Z,18.88
2022-08-11T06:05:14.112Z,18.96
2022-08-11T06:07:48.986Z,19.08
2022-08-11T06:10:28.541Z,19.08
2022-08-11T06:13:00.959Z,19.13
2022-08-11T06:15:34.498Z,19.25
2022-08-11T06:18:04.124Z,19.30
2022-08-11T06:20:37.450Z,19.48
2022-08-11T06:23:07.765Z,19.70
2022-08-11T06:25:37.595Z,19.70
2022-08-11T06:28:08.036Z,19.71
2022-08-11T06:30:40.721Z,19.80
2022-08-11T06:33:10.837Z,19.78
2022-08-11T06:35:49.000Z,19.95
2022-08-11T06:38:26.091Z,19.92
2022-08-11T06:41:15.508Z,20.04
2022-08-11T06:43:55.414Z,20.25
2022-08-11T06:46:33.098Z,20.29
2022-08-11T06:49:03.634Z,20.40
2022-08-11T06:51:32.592Z,20.50
2022-08-11T06:54:04.353Z,20.51
2022-08-11T06:57:18.574Z,20.67
2022-08-11T07:00:00.367Z,20.79
2022-08-11T07:02:34.827Z,20.86
2022-08-11T07:05:09.243Z,20.96
2022-08-11T07:08:35.735Z,21.10
2022-08-11T07:11:51.165Z,21.28
2022-08-11T07:18:15.852Z,21.52
2022-08-11T07:21:03.076Z,21.69
2022-08-11T07:24:07.370Z,21.84
2022-08-11T07:26:53.232Z,21.89
2022-08-11T07:29:22.065Z,22.10
2022-08-11T07:31:54.084Z,22.14
2022-08-11T07:34:36.984Z,22.35
2022-08-11T07:37:12.538Z,22.46
2022-08-11T07:39:44.277Z,22.56
2022-08-11T07:42:17.591Z,22.62
2022-08-11T07:45:07.842Z,22.69
2022-08-11T07:47:55.210Z,22.80
2022-08-11T07:50:42.653Z,22.88
2022-08-11T07:53:11.948Z,22.93
2022-08-11T07:55:51.291Z,23.16
2022-08-11T07:58:45.105Z,23.23
2022-08-11T08:01:39.356Z,23.27
2022-08-11T08:04:27.089Z,23.27
2022-08-11T08:07:15.712Z,23.35
2022-08-11T08:10:03.122Z,23.45
2022-08-11T08:12:50.449Z,23.53
2022-08-11T08:15:38.689Z,23.62
2022-08-11T08:18:25.860Z,23.79
2022-08-11T08:21:11.783Z,23.84
2022-08-11T08:23:42.319Z,23.97
2022-08-11T08:26:27.444Z,24.21
2022-08-11T08:29:18.303Z,24.11
2022-08-11T08:31:48.480Z,24.14
2022-08-11T08:34:17.786Z,24.12
2022-08-11T08:36:48.167Z,24.16
2022-08-11T08:39:21.723Z,24.47
2022-08-11T08:41:54.046Z,24.68
2022-08-11T08:44:41.479Z,24.63
2022-08-11T08:47:14.979Z,24.65
2022-08-11T08:50:07.719Z,24.71
2022-08-11T08:52:42.800Z,24.67
2022-08-11T08:55:19.753Z,24.63
2022-08-11T08:57:50.166Z,24.74
2022-08-11T09:00:23.326Z,24.73
2022-08-11T09:02:52.886Z,24.98
2022-08-11T09:05:21.601Z,25.02
2022-08-11T09:07:53.673Z,25.02
2022-08-11T09:10:24.381Z,25.14
2022-08-11T09:12:53.955Z,25.50
2022-08-11T09:15:23.152Z,25.62
2022-08-11T09:18:03.713Z,25.59
2022-08-11T09:20:34.759Z,25.56
2022-08-11T09:26:43.250Z,25.60
2022-08-11T09:29:12.319Z,25.57
2022-08-11T09:31:40.820Z,25.66
2022-08-11T09:34:10.785Z,25.90
2022-08-11T09:36:58.274Z,25.94
2022-08-11T09:39:45.195Z,26.22
2022-08-11T09:42:16.675Z,26.11
2022-08-11T09:44:51.141Z,25.94
2022-08-11T09:47:24.308Z,26.03
2022-08-11T09:49:54.721Z,26.09
2022-08-11T09:52:25.716Z,26.15
2022-08-11T09:54:55.747Z,26.23
2022-08-11T09:57:44.091Z,26.28
2022-08-11T10:00:15.245Z,26.70
2022-08-11T10:02:45.677Z,26.87
2022-08-11T10:05:35.747Z,26.81
2022-08-11T10:08:05.676Z,26.72
2022-08-11T10:10:36.789Z,26.85
2022-08-11T10:14:03.710Z,26.83
2022-08-11T10:16:14.851Z,27.06
2022-08-11T10:18:52.533Z,27.35
2022-08-11T10:21:29.125Z,27.38
2022-08-11T10:24:51.276Z,27.23
2022-08-11T10:27:19.805Z,27.55
2022-08-11T10:30:07.404Z,27.43
2022-08-11T10:32:59.327Z,27.78
2022-08-11T10:35:29.228Z,28.58
2022-08-11T10:38:06.849Z,28.80
2022-08-11T10:40:39.889Z,28.46
2022-08-11T10:43:13.283Z,28.75
2022-08-11T10:46:04.223Z,29.08
2022-08-11T10:48:37.844Z,29.20
2022-08-11T10:51:13.120Z,29.90
2022-08-11T10:54:05.700Z,28.72
2022-08-11T10:56:53.948Z,28.87
2022-08-11T10:59:24.133Z,28.87
2022-08-11T11:01:55.623Z,29.19
2022-08-11T11:04:29.663Z,29.17
2022-08-11T11:07:13.768Z,29.05
2022-08-11T11:09:45.337Z,29.69
2022-08-11T11:12:37.679Z,29.20
2022-08-11T11:15:25.340Z,29.63
2022-08-11T11:18:01.620Z,29.58
2022-08-11T11:20:36.705Z,29.86
2022-08-11T11:23:11.187Z,29.82
2022-08-11T11:26:10.921Z,31.06
2022-08-11T11:29:20.282Z,30.46
2022-08-11T11:31:57.910Z,33.03
2022-08-11T11:34:53.624Z,31.53
2022-08-11T11:37:24.771Z,32.90
2022-08-11T11:39:54.280Z,33.99
2022-08-11T11:42:23.930Z,34.68
2022-08-11T11:44:55.588Z,32.92
2022-08-11T11:47:25.156Z,32.97
2022-08-11T11:49:55.495Z,33.77
2022-08-11T11:52:24.888Z,33.76
2022-08-11T11:54:56.424Z,33.78
2022-08-11T11:57:59.179Z,33.41
2022-08-11T12:00:48.307Z,31.89
2022-08-11T12:03:18.008Z,34.90
2022-08-11T12:05:48.674Z,31.60
2022-08-11T12:08:18.088Z,31.22
2022-08-11T12:10:49.174Z,30.75
2022-08-11T12:13:36.700Z,32.68
2022-08-11T12:16:33.612Z,35.14
2022-08-11T12:18:57.481Z,36.06
2022-08-11T12:21:28.645Z,35.06
2022-08-11T12:24:15.799Z,35.25
2022-08-11T12:27:16.566Z,35.34
2022-08-11T12:29:52.773Z,34.35
2022-08-11T12:32:25.468Z,34.96
2022-08-11T12:34:56.993Z,34.64
2022-08-11T12:37:32.792Z,34.39
2022-08-11T12:40:42.668Z,33.30
2022-08-11T12:43:37.335Z,34.32
2022-08-11T12:46:13.935Z,34.94
2022-08-11T12:49:04.022Z,35.58
2022-08-11T12:52:11.654Z,33.99
2022-08-11T12:54:59.646Z,35.64
2022-08-11T12:57:49.892Z,34.43
2022-08-11T13:00:37.523Z,36.58
2022-08-11T13:03:26.074Z,35.72
2022-08-11T13:05:57.594Z,35.93
2022-08-11T13:08:27.827Z,34.86
2022-08-11T13:11:16.916Z,35.16
2022-08-11T13:13:54.580Z,34.79
2022-08-11T13:16:26.586Z,35.54
2022-08-11T13:18:55.295Z,34.68
2022-08-11T13:21:24.327Z,34.50
2022-08-11T13:24:01.691Z,34.21
2022-08-11T13:26:48.552Z,33.61
2022-08-11T13:29:23.280Z,33.40
2022-08-11T13:31:52.541Z,34.28
2022-08-11T13:34:22.346Z,33.26
2022-08-11T13:36:53.044Z,33.66
2022-08-11T13:39:24.089Z,31.72
2022-08-11T13:41:56.676Z,31.20
2022-08-11T13:44:28.332Z,31.78
2022-08-11T13:47:02.551Z,32.53
2022-08-11T13:49:31.991Z,31.65
2022-08-11T13:52:00.820Z,31.51
2022-08-11T13:54:32.096Z,32.48
2022-08-11T13:57:09.191Z,31.26
2022-08-11T13:59:52.385Z,32.48
2022-08-11T14:02:29.412Z,32.56
2022-08-11T14:05:02.660Z,33.05
2022-08-11T14:07:38.931Z,31.08
2022-08-11T14:10:10.274Z,31.86
2022-08-11T14:13:01.757Z,32.39
2022-08-11T14:15:34.065Z,32.26
2022-08-11T14:18:06.260Z,32.18
2022-08-11T14:20:50.672Z,31.21
2022-08-11T14:23:22.123Z,30.89
2022-08-11T14:26:08.432Z,31.00
2022-08-11T14:28:44.521Z,31.03
2022-08-11T14:31:15.652Z,30.93
2022-08-11T14:33:59.689Z,31.86
2022-08-11T14:36:32.603Z,31.67
2022-08-11T14:39:03.652Z,31.81
2022-08-11T14:42:10.244Z,30.23
2022-08-11T14:44:58.834Z,30.65
2022-08-11T14:47:30.830Z,30.56
2022-08-11T14:50:10.917Z,31.61
2022-08-11T14:52:47.253Z,31.61
2022-08-11T14:55:33.654Z,31.80
2022-08-11T14:58:03.353Z,31.61
2022-08-11T15:00:35.247Z,31.10
2022-08-11T15:03:11.896Z,31.74
2022-08-11T15:05:56.092Z,31.97
2022-08-11T15:08:47.462Z,30.60
2022-08-11T15:11:34.927Z,31.52
2022-08-11T15:14:05.788Z,31.31
2022-08-11T15:16:55.057Z,31.85
2022-08-11T15:19:27.369Z,31.33
2022-08-11T15:22:24.814Z,31.49
2022-08-11T15:24:55.387Z,31.36
2022-08-11T15:27:42.934Z,30.61
2022-08-11T15:30:33.788Z,30.80
2022-08-11T15:33:24.298Z,31.15
2022-08-11T15:36:10.666Z,31.86
2022-08-11T15:38:43.438Z,31.66
2022-08-11T15:41:34.388Z,30.55
2022-08-11T15:45:01.458Z,30.19
2022-08-11T15:47:36.029Z,30.80
2022-08-11T15:50:11.589Z,31.06
2022-08-11T15:52:48.759Z,30.71
2022-08-11T15:55:17.974Z,30.50
2022-08-11T15:58:07.563Z,30.41
2022-08-11T16:00:53.989Z,30.82
2022-08-11T16:04:06.465Z,30.81
2022-08-11T16:06:47.435Z,31.80
2022-08-11T16:09:19.483Z,31.09
2022-08-11T16:11:49.688Z,30.96
2022-08-11T16:14:37.844Z,31.02
2022-08-11T16:17:08.045Z,31.47
2022-08-11T16:19:37.960Z,31.02
2022-08-11T16:22:11.978Z,31.53
2022-08-11T16:27:03.233Z,31.28
2022-08-11T16:27:34.981Z,31.31
2022-08-11T16:30:05.200Z,30.46
2022-08-11T16:32:34.310Z,30.18
2022-08-11T16:35:22.101Z,30.10
2022-08-11T16:38:11.826Z,30.90
2022-08-11T16:40:41.143Z,30.86
2022-08-11T16:43:30.585Z,30.29
2022-08-11T16:46:32.280Z,30.22
2022-08-11T16:49:02.903Z,29.69
2022-08-11T16:51:32.689Z,29.77
2022-08-11T16:54:05.769Z,29.61
2022-08-11T16:56:38.606Z,30.32
2022-08-11T16:59:16.960Z,30.46
2022-08-11T17:01:48.905Z,30.24
2022-08-11T17:04:48.403Z,30.17
2022-08-11T17:07:41.925Z,29.62
2022-08-11T17:10:50.492Z,30.04
2022-08-11T17:13:24.869Z,29.66
2022-08-11T17:16:11.838Z,29.98
2022-08-11T17:18:56.938Z,29.32
2022-08-11T17:21:29.792Z,29.36
2022-08-11T17:24:01.905Z,29.32
2022-08-11T17:26:57.008Z,28.91
2022-08-11T17:29:29.838Z,29.35
2022-08-11T17:32:15.647Z,28.72
2022-08-11T17:35:02.349Z,28.71
2022-08-11T17:37:33.057Z,29.05
2022-08-11T17:40:03.659Z,29.11
2022-08-11T17:42:52.897Z,28.83
2022-08-11T17:45:40.752Z,28.54
2022-08-11T17:48:27.844Z,28.55
2022-08-11T17:50:59.257Z,28.20
2022-08-11T17:54:02.203Z,28.18
2022-08-11T17:56:53.993Z,28.01
2022-08-11T17:59:43.739Z,28.03
2022-08-11T18:02:36.685Z,27.81
2022-08-11T18:05:10.826Z,28.10
2022-08-11T18:08:00.563Z,27.89
2022-08-11T18:10:49.024Z,27.63
2022-08-11T18:13:35.695Z,27.73
2022-08-11T18:16:23.469Z,27.47
2022-08-11T18:19:09.018Z,27.29
2022-08-11T18:22:07.840Z,26.95
2022-08-11T18:25:07.219Z,26.69
2022-08-11T18:27:54.394Z,26.66
2022-08-11T18:30:41.172Z,26.56
2022-08-11T18:33:56.716Z,26.26
2022-08-11T18:36:41.516Z,26.20
2022-08-11T18:39:30.660Z,26.11
2022-08-11T18:42:29.216Z,26.02
2022-08-11T18:45:18.638Z,25.81
2022-08-11T18:48:06.497Z,25.76
2022-08-11T18:51:29.645Z,25.77
2022-08-11T18:54:07.688Z,25.52
2022-08-11T18:56:54.667Z,25.45
2022-08-11T18:59:44.742Z,25.37
2022-08-11T19:02:49.589Z,25.23
2022-08-11T19:06:32.116Z,25.16
2022-08-11T19:08:48.666Z,25.08
2022-08-11T19:11:40.972Z,25.00
2022-08-11T19:14:33.921Z,24.90
2022-08-11T19:17:44.216Z,24.85
2022-08-11T19:20:29.047Z,24.75
2022-08-11T19:23:16.484Z,24.78
2022-08-11T19:26:05.275Z,24.83
2022-08-11T19:28:52.550Z,24.72
2022-08-11T19:31:44.458Z,24.68
2022-08-11T19:34:32.226Z,24.45
2022-08-11T19:37:23.542Z,24.45
2022-08-11T19:40:11.461Z,24.32
2022-08-11T19:43:00.335Z,24.15
2022-08-11T19:45:52.131Z,24.10
2022-08-11T19:48:40.835Z,24.08
2022-08-11T19:51:27.572Z,24.00
2022-08-11T19:54:14.013Z,23.99
2022-08-11T19:57:01.476Z,23.97
2022-08-11T19:59:50.035Z,23.90
2022-08-11T20:02:35.436Z,23.78
2022-08-11T20:05:21.282Z,23.70
2022-08-11T20:08:07.560Z,23.69
2022-08-11T20:10:55.475Z,23.67
2022-08-11T20:13:43.958Z,23.71
2022-08-11T20:16:34.675Z,23.65
2022-08-11T20:19:26.251Z,23.55
2022-08-11T20:22:27.851Z,23.58
2022-08-11T20:25:14.802Z,23.64
2022-08-11T20:28:02.203Z,23.56
2022-08-11T20:30:51.682Z,23.60
2022-08-11T20:33:41.019Z,23.55
2022-08-11T20:36:27.371Z,23.51
2022-08-11T20:39:14.553Z,23.50
2022-08-11T20:42:00.922Z,23.50
2022-08-11T20:44:48.179Z,23.43
2022-08-11T20:47:56.168Z,23.42
2022-08-11T20:50:46.000Z,23.54
2022-08-11T20:53:35.804Z,23.65
2022-08-11T20:56:28.956Z,23.59
2022-08-11T20:59:18.725Z,23.65
2022-08-11T21:02:09.800Z,23.55
2022-08-11T21:04:57.122Z,23.55
2022-08-11T21:07:50.249Z,23.52
2022-08-11T21:10:46.762Z,23.47
2022-08-11T21:13:37.043Z,23.24
2022-08-11T21:16:27.251Z,23.23
2022-08-11T21:19:18.799Z,23.01
2022-08-11T21:22:06.122Z,22.96
2022-08-11T21:24:54.645Z,22.98
2022-08-11T21:27:41.946Z,22.89
2022-08-11T21:30:28.270Z,22.80
2022-08-11T21:33:14.086Z,22.77
2022-08-11T21:36:00.781Z,22.54
2022-08-11T21:38:47.509Z,22.64
2022-08-11T21:41:36.609Z,22.71
2022-08-11T21:44:24.921Z,22.58
2022-08-11T21:47:14.926Z,22.36
2022-08-11T21:50:03.886Z,22.42
2022-08-11T21:52:49.517Z,22.41
2022-08-11T21:55:35.395Z,22.31
2022-08-11T21:58:25.121Z,22.24
2022-08-11T22:01:11.430Z,22.10
2022-08-11T22:03:58.217Z,22.14
2022-08-11T22:06:45.040Z,22.19
2022-08-11T22:09:31.172Z,22.02
2022-08-11T22:12:33.402Z,22.01
2022-08-11T22:15:22.532Z,21.89
2022-08-11T22:18:07.698Z,21.77
2022-08-11T22:20:53.924Z,21.71
2022-08-11T22:23:40.748Z,21.64
2022-08-11T22:26:26.086Z,21.64
2022-08-11T22:29:11.348Z,21.64
2022-08-11T22:32:00.716Z,21.53
2022-08-11T22:34:53.085Z,21.52
2022-08-11T22:37:40.463Z,21.55
2022-08-11T22:40:28.225Z,21.46
2022-08-11T22:43:14.115Z,21.32
2022-08-11T22:45:59.548Z,21.33
2022-08-11T22:48:48.073Z,21.32
2022-08-11T22:51:36.512Z,21.19
2022-08-11T22:54:23.365Z,21.05
2022-08-11T22:57:10.133Z,21.11
2022-08-11T22:59:56.040Z,20.98
2022-08-11T23:02:41.813Z,20.91
2022-08-11T23:05:29.198Z,20.77
2022-08-11T23:08:16.072Z,20.82
2022-08-11T23:11:02.443Z,20.75
2022-08-11T23:13:49.799Z,20.60
2022-08-11T23:16:35.927Z,20.64
2022-08-11T23:20:06.743Z,20.67
2022-08-11T23:22:36.699Z,20.57
2022-08-11T23:25:34.933Z,20.60
2022-08-11T23:28:21.056Z,20.65
2022-08-11T23:31:08.921Z,20.68
2022-08-11T23:33:58.324Z,20.85
2022-08-11T23:36:47.317Z,20.86
2022-08-11T23:39:35.790Z,20.77
2022-08-11T23:42:22.407Z,20.70
2022-08-11T23:45:10.109Z,20.65
2022-08-11T23:47:57.462Z,20.61
2022-08-11T23:50:43.656Z,20.53
2022-08-11T23:53:36.507Z,20.26
2022-08-11T23:56:42.029Z,20.45
2022-08-11T23:59:28.855Z,20.35
